sensor_id;sensor_type;location;lat;lon;timestamp;pressure;altitude;pressure_sealevel;temperature;humidity
68889;BME280;55930;47.412;8.790;2022-08-19T00:01:33;94344.53;;;16.33;100.00
68889;BME280;55930;47.412;8.790;2022-08-19T00:04:00;94342.75;;;16.41;100.00
68889;BME280;55930;47.412;8.790;2022-08-19T00:06:28;94349.06;;;16.43;100.00
68889;BME280;55930;47.412;8.790;2022-08-19T00:08:54;94341.94;;;16.52;100.00
68889;BME280;55930;47.412;8.790;2022-08-19T00:11:23;94334.44;;;16.44;100.00
68889;BME280;55930;47.412;8.790;2022-08-19T00:13:49;94338.13;;;16.41;100.00
68889;BME280;55930;47.412;8.790;2022-08-19T00:16:16;94343.53;;;16.36;100.00
68889;BME280;55930;47.412;8.790;2022-08-19T00:18:44;94336.94;;;16.37;100.00
68889;BME280;55930;47.412;8.790;2022-08-19T00:21:09;94339.13;;;16.38;100.00
68889;BME280;55930;47.412;8.790;2022-08-19T00:23:35;94343.00;;;16.37;100.00
68889;BME280;55930;47.412;8.790;2022-08-19T00:26:06;94343.06;;;16.32;100.00
68889;BME280;55930;47.412;8.790;2022-08-19T00:28:34;94342.91;;;16.24;100.00
68889;BME280;55930;47.412;8.790;2022-08-19T00:31:02;94354.25;;;16.36;100.00
68889;BME280;55930;47.412;8.790;2022-08-19T00:33:31;94354.00;;;16.34;100.00
68889;BME280;55930;47.412;8.790;2022-08-19T00:36:04;94352.00;;;16.40;100.00
68889;BME280;55930;47.412;8.790;2022-08-19T00:38:31;94349.28;;;16.45;100.00
68889;BME280;55930;47.412;8.790;2022-08-19T00:40:57;94353.13;;;16.50;100.00
68889;BME280;55930;47.412;8.790;2022-08-19T00:43:25;94348.84;;;16.41;100.00
68889;BME280;55930;47.412;8.790;2022-08-19T00:45:52;94348.94;;;16.55;100.00
68889;BME280;55930;47.412;8.790;2022-08-19T00:48:19;94347.31;;;16.46;100.00
68889;BME280;55930;47.412;8.790;2022-08-19T00:50:48;94335.88;;;16.45;100.00
68889;BME280;55930;47.412;8.790;2022-08-19T00:53:16;94336.09;;;16.48;100.00
68889;BME280;55930;47.412;8.790;2022-08-19T00:55:49;94339.34;;;16.40;100.00
68889;BME280;55930;47.412;8.790;2022-08-19T00:58:17;94332.03;;;16.41;100.00
68889;BME280;55930;47.412;8.790;2022-08-19T01:00:47;94337.34;;;16.46;100.00
68889;BME280;55930;47.412;8.790;2022-08-19T01:03:17;94337.72;;;16.32;100.00
68889;BME280;55930;47.412;8.790;2022-08-19T01:05:45;94326.50;;;16.33;100.00
68889;BME280;55930;47.412;8.790;2022-08-19T01:08:11;94326.63;;;16.46;100.00
68889;BME280;55930;47.412;8.790;2022-08-19T01:10:41;94326.19;;;16.42;100.00
68889;BME280;55930;47.412;8.790;2022-08-19T01:13:07;94315.91;;;16.46;100.00
68889;BME280;55930;47.412;8.790;2022-08-19T01:15:42;94324.25;;;16.43;100.00
68889;BME280;55930;47.412;8.790;2022-08-19T01:18:11;94324.06;;;16.35;100.00
68889;BME280;55930;47.412;8.790;2022-08-19T01:20:37;94312.13;;;16.36;100.00
68889;BME280;55930;47.412;8.790;2022-08-19T01:23:03;94313.13;;;16.33;100.00
68889;BME280;55930;47.412;8.790;2022-08-19T01:25:45;94303.09;;;16.39;100.00
68889;BME280;55930;47.412;8.790;2022-08-19T01:28:24;94316.47;;;16.39;100.00
68889;BME280;55930;47.412;8.790;2022-08-19T01:30:51;94317.38;;;16.48;100.00
68889;BME280;55930;47.412;8.790;2022-08-19T01:33:17;94316.41;;;16.45;100.00
68889;BME280;55930;47.412;8.790;2022-08-19T01:35:47;94324.28;;;16.37;100.00
68889;BME280;55930;47.412;8.790;2022-08-19T01:38:25;94330.84;;;16.36;100.00
68889;BME280;55930;47.412;8.790;2022-08-19T01:40:51;94331.81;;;16.39;100.00
68889;BME280;55930;47.412;8.790;2022-08-19T01:43:17;94333.00;;;16.43;100.00
68889;BME280;55930;47.412;8.790;2022-08-19T01:45:44;94329.31;;;16.46;100.00
68889;BME280;55930;47.412;8.790;2022-08-19T01:48:11;94328.06;;;16.48;100.00
68889;BME280;55930;47.412;8.790;2022-08-19T01:50:37;94314.34;;;16.57;100.00
68889;BME280;55930;47.412;8.790;2022-08-19T01:53:06;94307.38;;;16.48;100.00
68889;BME280;55930;47.412;8.790;2022-08-19T01:55:32;94300.63;;;16.41;100.00
68889;BME280;55930;47.412;8.790;2022-08-19T01:58:02;94304.78;;;16.42;100.00
68889;BME280;55930;47.412;8.790;2022-08-19T02:00:31;94311.50;;;16.49;100.00
68889;BME280;55930;47.412;8.790;2022-08-19T02:02:57;94301.88;;;16.40;100.00
68889;BME280;55930;47.412;8.790;2022-08-19T02:05:23;94307.47;;;16.37;100.00
68889;BME280;55930;47.412;8.790;2022-08-19T02:07:51;94299.97;;;16.35;100.00
68889;BME280;55930;47.412;8.790;2022-08-19T02:10:20;94301.38;;;16.42;100.00
68889;BME280;55930;47.412;8.790;2022-08-19T02:12:48;94298.19;;;16.43;100.00
68889;BME280;55930;47.412;8.790;2022-08-19T02:15:18;94302.25;;;16.50;100.00
68889;BME280;55930;47.412;8.790;2022-08-19T02:17:44;94299.63;;;16.44;100.00
68889;BME280;55930;47.412;8.790;2022-08-19T02:20:11;94292.31;;;16.45;100.00
68889;BME280;55930;47.412;8.790;2022-08-19T02:22:37;94290.16;;;16.43;100.00
68889;BME280;55930;47.412;8.790;2022-08-19T02:25:03;94292.31;;;16.45;100.00
68889;BME280;55930;47.412;8.790;2022-08-19T02:27:31;94297.41;;;16.49;100.00
68889;BME280;55930;47.412;8.790;2022-08-19T02:29:57;94300.50;;;16.28;100.00
68889;BME280;55930;47.412;8.790;2022-08-19T02:32:22;94305.84;;;16.28;100.00
68889;BME280;55930;47.412;8.790;2022-08-19T02:34:48;94310.50;;;16.28;100.00
68889;BME280;55930;47.412;8.790;2022-08-19T02:37:13;94309.06;;;16.27;100.00
68889;BME280;55930;47.412;8.790;2022-08-19T02:39:58;94312.13;;;16.36;100.00
68889;BME280;55930;47.412;8.790;2022-08-19T02:42:26;94312.22;;;16.25;100.00
68889;BME280;55930;47.412;8.790;2022-08-19T02:44:52;94318.25;;;16.31;100.00
68889;BME280;55930;47.412;8.790;2022-08-19T02:47:18;94311.13;;;16.39;100.00
68889;BME280;55930;47.412;8.790;2022-08-19T02:49:44;94306.06;;;16.36;100.00
68889;BME280;55930;47.412;8.790;2022-08-19T02:52:10;94306.16;;;16.25;100.00
68889;BME280;55930;47.412;8.790;2022-08-19T02:54:36;94304.19;;;16.25;100.00
68889;BME280;55930;47.412;8.790;2022-08-19T02:57:03;94292.78;;;16.25;100.00
68889;BME280;55930;47.412;8.790;2022-08-19T02:59:31;94299.84;;;16.22;100.00
68889;BME280;55930;47.412;8.790;2022-08-19T03:01:57;94299.28;;;16.29;100.00
68889;BME280;55930;47.412;8.790;2022-08-19T03:04:22;94302.41;;;16.33;100.00
68889;BME280;55930;47.412;8.790;2022-08-19T03:06:50;94304.94;;;16.26;100.00
68889;BME280;55930;47.412;8.790;2022-08-19T03:09:17;94303.91;;;16.29;100.00
68889;BME280;55930;47.412;8.790;2022-08-19T03:11:46;94295.63;;;16.32;100.00
68889;BME280;55930;47.412;8.790;2022-08-19T03:14:12;94301.41;;;16.36;100.00
68889;BME280;55930;47.412;8.790;2022-08-19T03:16:47;94304.78;;;16.42;100.00
68889;BME280;55930;47.412;8.790;2022-08-19T03:19:16;94317.59;;;16.25;100.00
68889;BME280;55930;47.412;8.790;2022-08-19T03:21:42;94318.75;;;16.30;100.00
68889;BME280;55930;47.412;8.790;2022-08-19T03:24:10;94313.22;;;16.22;100.00
68889;BME280;55930;47.412;8.790;2022-08-19T03:26:40;94311.78;;;16.21;100.00
68889;BME280;55930;47.412;8.790;2022-08-19T03:29:06;94307.69;;;16.15;100.00
68889;BME280;55930;47.412;8.790;2022-08-19T03:31:31;94305.03;;;16.15;100.00
68889;BME280;55930;47.412;8.790;2022-08-19T03:33:57;94302.63;;;16.11;100.00
68889;BME280;55930;47.412;8.790;2022-08-19T03:36:25;94310.19;;;16.07;100.00
68889;BME280;55930;47.412;8.790;2022-08-19T03:38:57;94301.28;;;15.99;100.00
68889;BME280;55930;47.412;8.790;2022-08-19T03:41:27;94308.53;;;16.04;100.00
68889;BME280;55930;47.412;8.790;2022-08-19T03:43:54;94303.03;;;15.91;100.00
68889;BME280;55930;47.412;8.790;2022-08-19T03:46:28;94293.47;;;16.01;100.00
68889;BME280;55930;47.412;8.790;2022-08-19T03:48:55;94288.72;;;16.13;100.00
68889;BME280;55930;47.412;8.790;2022-08-19T03:51:33;94290.16;;;16.19;100.00
68889;BME280;55930;47.412;8.790;2022-08-19T03:54:04;94292.38;;;16.15;100.00
68889;BME280;55930;47.412;8.790;2022-08-19T03:56:30;94298.50;;;16.10;100.00
68889;BME280;55930;47.412;8.790;2022-08-19T03:58:57;94292.88;;;16.14;100.00
68889;BME280;55930;47.412;8.790;2022-08-19T04:01:24;94298.19;;;16.19;100.00
68889;BME280;55930;47.412;8.790;2022-08-19T04:03:52;94295.59;;;16.08;100.00
68889;BME280;55930;47.412;8.790;2022-08-19T04:06:23;94291.81;;;16.22;100.00
68889;BME280;55930;47.412;8.790;2022-08-19T04:08:51;94295.16;;;16.28;100.00
68889;BME280;55930;47.412;8.790;2022-08-19T04:11:21;94291.59;;;16.20;100.00
68889;BME280;55930;47.412;8.790;2022-08-19T04:13:48;94289.81;;;16.28;100.00
68889;BME280;55930;47.412;8.790;2022-08-19T04:16:14;94284.44;;;16.28;100.00
68889;BME280;55930;47.412;8.790;2022-08-19T04:18:40;94287.97;;;16.18;100.00
68889;BME280;55930;47.412;8.790;2022-08-19T04:21:07;94287.81;;;16.10;100.00
68889;BME280;55930;47.412;8.790;2022-08-19T04:23:34;94296.25;;;16.14;100.00
68889;BME280;55930;47.412;8.790;2022-08-19T04:26:02;94300.56;;;16.23;100.00
68889;BME280;55930;47.412;8.790;2022-08-19T04:28:30;94314.44;;;16.21;100.00
68889;BME280;55930;47.412;8.790;2022-08-19T04:30:55;94320.25;;;16.25;100.00
68889;BME280;55930;47.412;8.790;2022-08-19T04:33:23;94322.28;;;16.19;100.00
68889;BME280;55930;47.412;8.790;2022-08-19T04:35:52;94316.69;;;16.17;100.00
68889;BME280;55930;47.412;8.790;2022-08-19T04:38:19;94309.63;;;16.20;100.00
68889;BME280;55930;47.412;8.790;2022-08-19T04:40:49;94310.59;;;16.17;100.00
68889;BME280;55930;47.412;8.790;2022-08-19T04:43:37;94313.88;;;16.28;100.00
68889;BME280;55930;47.412;8.790;2022-08-19T04:46:08;94314.91;;;16.25;100.00
68889;BME280;55930;47.412;8.790;2022-08-19T04:48:35;94312.66;;;16.29;100.00
68889;BME280;55930;47.412;8.790;2022-08-19T04:51:00;94318.31;;;16.26;100.00
68889;BME280;55930;47.412;8.790;2022-08-19T04:53:30;94318.91;;;16.13;100.00
68889;BME280;55930;47.412;8.790;2022-08-19T04:56:03;94327.34;;;16.23;100.00
68889;BME280;55930;47.412;8.790;2022-08-19T04:58:29;94326.41;;;16.20;100.00
68889;BME280;55930;47.412;8.790;2022-08-19T05:00:55;94331.69;;;16.26;100.00
68889;BME280;55930;47.412;8.790;2022-08-19T05:03:21;94340.72;;;16.23;100.00
68889;BME280;55930;47.412;8.790;2022-08-19T05:05:47;94343.81;;;16.32;100.00
68889;BME280;55930;47.412;8.790;2022-08-19T05:08:16;94347.69;;;16.31;100.00
68889;BME280;55930;47.412;8.790;2022-08-19T05:10:47;94351.38;;;16.28;100.00
68889;BME280;55930;47.412;8.790;2022-08-19T05:13:13;94352.16;;;16.23;100.00
68889;BME280;55930;47.412;8.790;2022-08-19T05:15:40;94353.97;;;16.39;100.00
68889;BME280;55930;47.412;8.790;2022-08-19T05:18:05;94350.13;;;16.35;100.00
68889;BME280;55930;47.412;8.790;2022-08-19T05:20:49;94351.59;;;16.30;100.00
68889;BME280;55930;47.412;8.790;2022-08-19T05:23:33;94353.53;;;16.35;100.00
68889;BME280;55930;47.412;8.790;2022-08-19T05:25:58;94361.41;;;16.22;100.00
68889;BME280;55930;47.412;8.790;2022-08-19T05:28:24;94367.25;;;16.21;100.00
68889;BME280;55930;47.412;8.790;2022-08-19T05:30:49;94371.19;;;16.20;100.00
68889;BME280;55930;47.412;8.790;2022-08-19T05:33:17;94371.53;;;16.35;100.00
68889;BME280;55930;47.412;8.790;2022-08-19T05:35:43;94376.09;;;16.40;100.00
68889;BME280;55930;47.412;8.790;2022-08-19T05:38:10;94381.22;;;16.38;100.00
68889;BME280;55930;47.412;8.790;2022-08-19T05:40:39;94383.69;;;16.36;100.00
68889;BME280;55930;47.412;8.790;2022-08-19T05:43:06;94388.09;;;16.33;100.00
68889;BME280;55930;47.412;8.790;2022-08-19T05:45:37;94378.66;;;16.27;100.00
68889;BME280;55930;47.412;8.790;2022-08-19T05:48:03;94377.56;;;16.41;100.00
68889;BME280;55930;47.412;8.790;2022-08-19T05:50:28;94373.56;;;16.23;100.00
68889;BME280;55930;47.412;8.790;2022-08-19T05:52:54;94369.66;;;16.24;100.00
68889;BME280;55930;47.412;8.790;2022-08-19T05:55:20;94368.88;;;16.29;100.00
68889;BME280;55930;47.412;8.790;2022-08-19T05:57:47;94364.00;;;16.33;100.00
68889;BME280;55930;47.412;8.790;2022-08-19T06:00:13;94364.31;;;16.24;100.00
68889;BME280;55930;47.412;8.790;2022-08-19T06:02:39;94362.38;;;16.25;100.00
68889;BME280;55930;47.412;8.790;2022-08-19T06:05:06;94370.16;;;16.23;100.00
68889;BME280;55930;47.412;8.790;2022-08-19T06:07:38;94368.25;;;16.18;100.00
68889;BME280;55930;47.412;8.790;2022-08-19T06:10:05;94366.44;;;16.31;100.00
68889;BME280;55930;47.412;8.790;2022-08-19T06:12:35;94355.63;;;16.18;100.00
68889;BME280;55930;47.412;8.790;2022-08-19T06:15:10;94361.03;;;16.37;100.00
68889;BME280;55930;47.412;8.790;2022-08-19T06:17:37;94364.31;;;16.24;100.00
68889;BME280;55930;47.412;8.790;2022-08-19T06:20:05;94363.31;;;16.27;100.00
68889;BME280;55930;47.412;8.790;2022-08-19T06:22:42;94367.91;;;16.32;100.00
68889;BME280;55930;47.412;8.790;2022-08-19T06:25:11;94371.25;;;16.38;100.00
68889;BME280;55930;47.412;8.790;2022-08-19T06:27:37;94366.00;;;16.27;100.00
68889;BME280;55930;47.412;8.790;2022-08-19T06:30:03;94371.97;;;16.39;100.00
68889;BME280;55930;47.412;8.790;2022-08-19T06:32:29;94365.56;;;16.48;100.00
68889;BME280;55930;47.412;8.790;2022-08-19T06:34:54;94364.06;;;16.28;100.00
68889;BME280;55930;47.412;8.790;2022-08-19T06:37:20;94370.56;;;16.32;100.00
68889;BME280;55930;47.412;8.790;2022-08-19T06:39:47;94378.13;;;16.28;100.00
68889;BME280;55930;47.412;8.790;2022-08-19T06:42:12;94374.66;;;16.39;100.00
68889;BME280;55930;47.412;8.790;2022-08-19T06:44:43;94377.97;;;16.51;100.00
68889;BME280;55930;47.412;8.790;2022-08-19T06:47:12;94380.00;;;16.39;100.00
68889;BME280;55930;47.412;8.790;2022-08-19T06:49:38;94382.91;;;16.41;100.00
68889;BME280;55930;47.412;8.790;2022-08-19T06:52:04;94385.81;;;16.43;100.00
68889;BME280;55930;47.412;8.790;2022-08-19T06:54:30;94389.75;;;16.36;100.00
68889;BME280;55930;47.412;8.790;2022-08-19T06:56:58;94386.56;;;16.43;100.00
68889;BME280;55930;47.412;8.790;2022-08-19T06:59:24;94393.56;;;16.46;100.00
68889;BME280;55930;47.412;8.790;2022-08-19T07:01:55;94385.19;;;16.31;100.00
68889;BME280;55930;47.412;8.790;2022-08-19T07:04:24;94386.63;;;16.32;100.00
68889;BME280;55930;47.412;8.790;2022-08-19T07:06:58;94391.09;;;16.24;100.00
68889;BME280;55930;47.412;8.790;2022-08-19T07:09:26;94390.63;;;16.20;100.00
68889;BME280;55930;47.412;8.790;2022-08-19T07:11:53;94393.69;;;16.35;100.00
68889;BME280;55930;47.412;8.790;2022-08-19T07:14:24;94394.03;;;16.51;100.00
68889;BME280;55930;47.412;8.790;2022-08-19T07:16:51;94400.97;;;16.35;100.00
68889;BME280;55930;47.412;8.790;2022-08-19T07:19:20;94405.31;;;16.38;100.00
68889;BME280;55930;47.412;8.790;2022-08-19T07:21:48;94401.00;;;16.29;100.00
68889;BME280;55930;47.412;8.790;2022-08-19T07:24:15;94404.22;;;16.22;100.00
68889;BME280;55930;47.412;8.790;2022-08-19T07:26:42;94398.31;;;16.35;100.00
68889;BME280;55930;47.412;8.790;2022-08-19T07:29:09;94406.06;;;16.38;100.00
68889;BME280;55930;47.412;8.790;2022-08-19T07:31:35;94410.31;;;16.23;100.00
68889;BME280;55930;47.412;8.790;2022-08-19T07:34:04;94401.34;;;16.20;100.00
68889;BME280;55930;47.412;8.790;2022-08-19T07:36:33;94407.38;;;16.26;100.00
68889;BME280;55930;47.412;8.790;2022-08-19T07:39:00;94409.03;;;16.29;100.00
68889;BME280;55930;47.412;8.790;2022-08-19T07:41:28;94410.00;;;16.32;100.00
68889;BME280;55930;47.412;8.790;2022-08-19T07:43:57;94416.56;;;16.31;100.00
68889;BME280;55930;47.412;8.790;2022-08-19T07:46:22;94418.94;;;16.40;100.00
68889;BME280;55930;47.412;8.790;2022-08-19T07:48:49;94420.97;;;16.28;100.00
68889;BME280;55930;47.412;8.790;2022-08-19T07:51:20;94421.69;;;16.29;100.00
68889;BME280;55930;47.412;8.790;2022-08-19T07:53:46;94421.34;;;16.43;100.00
68889;BME280;55930;47.412;8.790;2022-08-19T07:56:13;94422.44;;;16.29;100.00
68889;BME280;55930;47.412;8.790;2022-08-19T07:58:41;94430.25;;;16.27;100.00
68889;BME280;55930;47.412;8.790;2022-08-19T08:01:10;94436.03;;;16.31;100.00
68889;BME280;55930;47.412;8.790;2022-08-19T08:03:37;94431.97;;;16.25;100.00
68889;BME280;55930;47.412;8.790;2022-08-19T08:06:21;94440.09;;;16.43;100.00
68889;BME280;55930;47.412;8.790;2022-08-19T08:09:06;94439.38;;;16.43;100.00
68889;BME280;55930;47.412;8.790;2022-08-19T08:11:53;94444.44;;;16.46;100.00
68889;BME280;55930;47.412;8.790;2022-08-19T08:14:25;94450.66;;;16.30;100.00
68889;BME280;55930;47.412;8.790;2022-08-19T08:16:54;94450.22;;;16.26;100.00
68889;BME280;55930;47.412;8.790;2022-08-19T08:19:21;94450.66;;;16.30;100.00
68889;BME280;55930;47.412;8.790;2022-08-19T08:21:48;94459.66;;;16.33;100.00
68889;BME280;55930;47.412;8.790;2022-08-19T08:24:14;94465.25;;;16.29;100.00
68889;BME280;55930;47.412;8.790;2022-08-19T08:26:39;94466.41;;;16.39;100.00
68889;BME280;55930;47.412;8.790;2022-08-19T08:29:06;94466.16;;;16.43;100.00
68889;BME280;55930;47.412;8.790;2022-08-19T08:31:33;94469.16;;;16.28;100.00
68889;BME280;55930;47.412;8.790;2022-08-19T08:33:59;94478.34;;;16.38;100.00
68889;BME280;55930;47.412;8.790;2022-08-19T08:36:24;94479.78;;;16.39;100.00
68889;BME280;55930;47.412;8.790;2022-08-19T08:38:50;94484.13;;;16.48;100.00
68889;BME280;55930;47.412;8.790;2022-08-19T08:42:05;94487.38;;;16.35;100.00
68889;BME280;55930;47.412;8.790;2022-08-19T08:44:14;94484.47;;;16.33;100.00
68889;BME280;55930;47.412;8.790;2022-08-19T08:46:45;94494.41;;;16.38;100.00
68889;BME280;55930;47.412;8.790;2022-08-19T08:52:17;94498.94;;;16.19;100.00
68889;BME280;55930;47.412;8.790;2022-08-19T08:54:46;94494.50;;;16.27;100.00
68889;BME280;55930;47.412;8.790;2022-08-19T08:57:22;94505.00;;;16.20;100.00
68889;BME280;55930;47.412;8.790;2022-08-19T08:59:52;94513.53;;;16.18;100.00
68889;BME280;55930;47.412;8.790;2022-08-19T09:02:19;94506.19;;;16.24;100.00
68889;BME280;55930;47.412;8.790;2022-08-19T09:04:47;94511.09;;;16.20;100.00
68889;BME280;55930;47.412;8.790;2022-08-19T09:15:44;94515.13;;;16.32;100.00
68889;BME280;55930;47.412;8.790;2022-08-19T09:18:10;94509.75;;;16.38;100.00
68889;BME280;55930;47.412;8.790;2022-08-19T09:20:36;94511.78;;;16.26;100.00
68889;BME280;55930;47.412;8.790;2022-08-19T09:23:02;94510.44;;;16.44;100.00
68889;BME280;55930;47.412;8.790;2022-08-19T09:25:28;94517.47;;;16.47;100.00
68889;BME280;55930;47.412;8.790;2022-08-19T09:27:58;94520.72;;;16.34;100.00
68889;BME280;55930;47.412;8.790;2022-08-19T09:30:29;94518.31;;;16.31;100.00
68889;BME280;55930;47.412;8.790;2022-08-19T09:32:55;94523.59;;;16.42;100.00
68889;BME280;55930;47.412;8.790;2022-08-19T09:35:22;94524.81;;;16.41;100.00
68889;BME280;55930;47.412;8.790;2022-08-19T09:37:48;94522.69;;;16.34;100.00
68889;BME280;55930;47.412;8.790;2022-08-19T09:40:14;94527.78;;;16.32;100.00
68889;BME280;55930;47.412;8.790;2022-08-19T09:42:41;94528.97;;;16.36;100.00
68889;BME280;55930;47.412;8.790;2022-08-19T09:45:10;94528.53;;;16.32;100.00
68889;BME280;55930;47.412;8.790;2022-08-19T09:47:35;94529.88;;;16.50;100.00
68889;BME280;55930;47.412;8.790;2022-08-19T09:50:05;94529.16;;;16.50;100.00
68889;BME280;55930;47.412;8.790;2022-08-19T09:52:30;94538.50;;;16.32;100.00
68889;BME280;55930;47.412;8.790;2022-08-19T09:54:56;94537.00;;;16.36;100.00
68889;BME280;55930;47.412;8.790;2022-08-19T09:57:24;94545.31;;;16.33;100.00
68889;BME280;55930;47.412;8.790;2022-08-19T09:59:49;94541.91;;;16.32;100.00
68889;BME280;55930;47.412;8.790;2022-08-19T10:02:14;94545.75;;;16.42;100.00
68889;BME280;55930;47.412;8.790;2022-08-19T10:04:40;94547.50;;;16.34;100.00
68889;BME280;55930;47.412;8.790;2022-08-19T10:07:24;94537.53;;;16.35;100.00
68889;BME280;55930;47.412;8.790;2022-08-19T10:09:49;94540.72;;;16.28;100.00
68889;BME280;55930;47.412;8.790;2022-08-19T10:12:17;94551.69;;;16.24;100.00
68889;BME280;55930;47.412;8.790;2022-08-19T10:14:45;94551.69;;;16.24;100.00
68889;BME280;55930;47.412;8.790;2022-08-19T10:17:11;94552.66;;;16.21;100.00
68889;BME280;55930;47.412;8.790;2022-08-19T10:19:36;94549.50;;;16.23;100.00
68889;BME280;55930;47.412;8.790;2022-08-19T10:22:06;94552.31;;;16.41;100.00
68889;BME280;55930;47.412;8.790;2022-08-19T10:24:33;94544.81;;;16.34;100.00
68889;BME280;55930;47.412;8.790;2022-08-19T10:27:00;94547.22;;;16.43;100.00
68889;BME280;55930;47.412;8.790;2022-08-19T10:29:29;94555.72;;;16.42;100.00
68889;BME280;55930;47.412;8.790;2022-08-19T10:31:54;94554.31;;;16.35;100.00
68889;BME280;55930;47.412;8.790;2022-08-19T10:34:21;94554.72;;;16.45;100.00
68889;BME280;55930;47.412;8.790;2022-08-19T10:36:46;94559.59;;;16.46;100.00
68889;BME280;55930;47.412;8.790;2022-08-19T10:39:11;94563.78;;;16.42;100.00
68889;BME280;55930;47.412;8.790;2022-08-19T10:41:38;94562.94;;;16.53;100.00
68889;BME280;55930;47.412;8.790;2022-08-19T10:44:09;94561.09;;;16.42;100.00
68889;BME280;55930;47.412;8.790;2022-08-19T10:46:37;94557.91;;;16.43;100.00
68889;BME280;55930;47.412;8.790;2022-08-19T10:49:07;94555.00;;;16.41;100.00
68889;BME280;55930;47.412;8.790;2022-08-19T10:51:33;94558.84;;;16.52;100.00
68889;BME280;55930;47.412;8.790;2022-08-19T10:54:18;94563.41;;;16.62;100.00
68889;BME280;55930;47.412;8.790;2022-08-19T10:56:43;94564.16;;;16.57;100.00
68889;BME280;55930;47.412;8.790;2022-08-19T10:59:20;94563.03;;;16.41;100.00
68889;BME280;55930;47.412;8.790;2022-08-19T11:01:47;94565.44;;;16.45;100.00
68889;BME280;55930;47.412;8.790;2022-08-19T11:04:13;94568.09;;;16.51;100.00
68889;BME280;55930;47.412;8.790;2022-08-19T11:06:46;94568.44;;;16.36;100.00
68889;BME280;55930;47.412;8.790;2022-08-19T11:09:14;94574.03;;;16.32;100.00
68889;BME280;55930;47.412;8.790;2022-08-19T11:11:40;94583.00;;;16.40;100.00
68889;BME280;55930;47.412;8.790;2022-08-19T11:14:12;94581.09;;;16.30;100.00
68889;BME280;55930;47.412;8.790;2022-08-19T11:16:40;94581.75;;;16.47;100.00
68889;BME280;55930;47.412;8.790;2022-08-19T11:19:07;94584.94;;;16.40;100.00
68889;BME280;55930;47.412;8.790;2022-08-19T11:21:42;94585.19;;;16.36;100.00
68889;BME280;55930;47.412;8.790;2022-08-19T11:24:11;94587.63;;;16.40;100.00
68889;BME280;55930;47.412;8.790;2022-08-19T11:26:41;94591.91;;;16.54;100.00
68889;BME280;55930;47.412;8.790;2022-08-19T11:29:11;94595.91;;;16.42;100.00
68889;BME280;55930;47.412;8.790;2022-08-19T11:31:40;94597.84;;;16.41;100.00
68889;BME280;55930;47.412;8.790;2022-08-19T11:34:08;94598.13;;;16.32;100.00
68889;BME280;55930;47.412;8.790;2022-08-19T11:36:37;94599.91;;;16.13;100.00
68889;BME280;55930;47.412;8.790;2022-08-19T11:39:05;94601.09;;;16.23;100.00
68889;BME280;55930;47.412;8.790;2022-08-19T11:41:31;94605.22;;;16.24;100.00
68889;BME280;55930;47.412;8.790;2022-08-19T11:43:59;94603.53;;;16.27;100.00
68889;BME280;55930;47.412;8.790;2022-08-19T11:46:26;94609.09;;;16.29;100.00
68889;BME280;55930;47.412;8.790;2022-08-19T11:48:55;94601.78;;;16.29;100.00
68889;BME280;55930;47.412;8.790;2022-08-19T11:51:23;94614.22;;;16.27;100.00
68889;BME280;55930;47.412;8.790;2022-08-19T11:53:50;94610.84;;;16.21;100.00
68889;BME280;55930;47.412;8.790;2022-08-19T11:56:16;94608.19;;;16.15;100.00
68889;BME280;55930;47.412;8.790;2022-08-19T11:58:42;94616.69;;;16.19;100.00
68889;BME280;55930;47.412;8.790;2022-08-19T12:01:11;94621.84;;;16.06;100.00
68889;BME280;55930;47.412;8.790;2022-08-19T12:03:37;94613.09;;;16.11;100.00
68889;BME280;55930;47.412;8.790;2022-08-19T12:06:07;94621.03;;;16.28;100.00
68889;BME280;55930;47.412;8.790;2022-08-19T12:08:35;94611.34;;;16.14;100.00
68889;BME280;55930;47.412;8.790;2022-08-19T12:11:01;94615.22;;;16.24;100.00
68889;BME280;55930;47.412;8.790;2022-08-19T12:13:27;94620.59;;;16.18;100.00
68889;BME280;55930;47.412;8.790;2022-08-19T12:15:59;94620.56;;;16.24;100.00
68889;BME280;55930;47.412;8.790;2022-08-19T12:18:25;94623.22;;;16.29;100.00
68889;BME280;55930;47.412;8.790;2022-08-19T12:20:52;94617.69;;;16.16;100.00
68889;BME280;55930;47.412;8.790;2022-08-19T12:23:19;94621.06;;;16.22;100.00
68889;BME280;55930;47.412;8.790;2022-08-19T12:25:47;94619.56;;;16.32;100.00
68889;BME280;55930;47.412;8.790;2022-08-19T12:28:16;94613.72;;;16.28;100.00
68889;BME280;55930;47.412;8.790;2022-08-19T12:30:43;94616.91;;;16.21;100.00
68889;BME280;55930;47.412;8.790;2022-08-19T12:33:09;94612.81;;;16.20;100.00
68889;BME280;55930;47.412;8.790;2022-08-19T12:35:34;94612.69;;;16.37;100.00
68889;BME280;55930;47.412;8.790;2022-08-19T12:38:00;94616.31;;;16.45;100.00
68889;BME280;55930;47.412;8.790;2022-08-19T12:40:27;94613.44;;;16.37;100.00
68889;BME280;55930;47.412;8.790;2022-08-19T12:42:55;94613.91;;;16.41;100.00
68889;BME280;55930;47.412;8.790;2022-08-19T12:45:22;94616.88;;;16.32;100.00
68889;BME280;55930;47.412;8.790;2022-08-19T12:47:48;94615.09;;;16.46;100.00
68889;BME280;55930;47.412;8.790;2022-08-19T12:50:14;94615.28;;;16.54;100.00
68889;BME280;55930;47.412;8.790;2022-08-19T12:52:39;94616.50;;;16.58;100.00
68889;BME280;55930;47.412;8.790;2022-08-19T12:55:08;94617.47;;;16.55;100.00
68889;BME280;55930;47.412;8.790;2022-08-19T12:57:34;94626.53;;;16.52;100.00
68889;BME280;55930;47.412;8.790;2022-08-19T13:00:13;94615.09;;;16.52;100.00
68889;BME280;55930;47.412;8.790;2022-08-19T13:02:44;94623.81;;;16.58;100.00
68889;BME280;55930;47.412;8.790;2022-08-19T13:05:14;94620.16;;;16.61;100.00
68889;BME280;55930;47.412;8.790;2022-08-19T13:07:41;94621.59;;;16.62;100.00